createdAt,value
2023-02-27T00:01:35.013Z,-0.18
2023-02-27T00:11:39.647Z,-0.27
2023-02-27T00:21:44.511Z,-0.17
2023-02-27T00:31:49.086Z,-0.12
2023-02-27T00:41:51.891Z,-0.13
2023-02-27T00:51:56.246Z,-0.14
2023-02-27T01:02:00.063Z,-0.12
2023-02-27T01:12:06.501Z,-0.21
2023-02-27T01:22:09.486Z,-0.30
2023-02-27T01:32:13.981Z,-0.31
2023-02-27T01:42:21.687Z,-0.40
2023-02-27T01:52:26.122Z,-0.47
2023-02-27T02:02:35.946Z,-0.56
2023-02-27T02:12:41.668Z,-0.59
2023-02-27T02:23:18.452Z,-0.71
2023-02-27T02:33:52.248Z,-0.87
2023-02-27T02:44:05.087Z,-0.93
2023-02-27T02:54:14.180Z,-1.15
2023-02-27T03:04:23.312Z,-1.39
2023-02-27T03:14:31.750Z,-1.35
2023-02-27T03:24:40.840Z,-1.25
2023-02-27T03:34:45.239Z,-1.20
2023-02-27T03:44:55.757Z,-1.21
2023-02-27T03:55:02.989Z,-1.22
2023-02-27T04:05:08.533Z,-1.26
2023-02-27T04:15:30.223Z,-1.41
2023-02-27T04:25:44.569Z,-1.53
2023-02-27T04:35:52.451Z,-1.58
2023-02-27T04:45:59.764Z,-1.58
2023-02-27T04:56:05.843Z,-1.51
2023-02-27T05:06:12.583Z,-1.47
2023-02-27T05:16:21.039Z,-1.55
2023-02-27T05:26:34.307Z,-1.60
2023-02-27T05:36:42.129Z,-1.70
2023-02-27T05:46:53.249Z,-1.66
2023-02-27T05:56:59.800Z,-1.65
2023-02-27T06:07:06.914Z,-1.62
2023-02-27T06:17:11.041Z,-1.66
2023-02-27T06:27:15.559Z,-1.64
2023-02-27T06:37:18.523Z,-1.78
2023-02-27T06:47:22.890Z,-1.85
2023-02-27T06:57:26.364Z,-1.82
2023-02-27T07:07:34.941Z,-1.74
2023-02-27T07:17:40.367Z,-1.66
2023-02-27T07:27:46.807Z,-1.42
2023-02-27T07:37:49.971Z,-1.04
2023-02-27T07:47:54.627Z,-0.75
2023-02-27T07:57:57.848Z,-0.40
2023-02-27T08:08:02.635Z,-0.15
2023-02-27T08:18:05.622Z,0.06
2023-02-27T08:28:10.321Z,0.32
2023-02-27T08:38:13.324Z,0.57
2023-02-27T08:48:18.620Z,0.92
2023-02-27T08:58:22.040Z,1.15
2023-02-27T09:08:26.645Z,1.51
2023-02-27T09:18:29.651Z,1.77
2023-02-27T09:28:34.518Z,2.11
2023-02-27T09:38:40.989Z,2.53
2023-02-27T09:48:51.675Z,2.84
2023-02-27T09:59:02.608Z,2.89
2023-02-27T10:09:18.861Z,3.22
2023-02-27T10:19:28.681Z,3.25
2023-02-27T10:29:36.843Z,3.70
2023-02-27T10:39:47.522Z,3.73
2023-02-27T10:49:52.869Z,4.01
2023-02-27T10:59:59.006Z,4.24
2023-02-27T11:10:17.613Z,4.46
2023-02-27T11:20:36.000Z,4.64
2023-02-27T11:30:40.573Z,4.89
2023-02-27T11:40:55.839Z,5.20
2023-02-27T11:51:38.541Z,5.93
2023-02-27T12:01:46.722Z,5.85
2023-02-27T12:11:52.204Z,5.82
2023-02-27T12:22:00.554Z,5.90
2023-02-27T12:32:16.039Z,5.94
2023-02-27T12:42:44.416Z,6.27
2023-02-27T12:53:02.695Z,6.16
2023-02-27T13:03:14.058Z,6.56
2023-02-27T13:13:27.569Z,6.48
2023-02-27T13:23:48.559Z,6.31
2023-02-27T13:34:01.462Z,6.43
2023-02-27T13:44:40.282Z,6.65
2023-02-27T13:54:45.564Z,6.28
2023-02-27T14:04:51.679Z,6.87
2023-02-27T14:14:57.467Z,6.70
2023-02-27T14:25:06.653Z,6.56
2023-02-27T14:35:17.462Z,6.76
2023-02-27T14:45:24.509Z,6.70
2023-02-27T14:55:32.040Z,6.51
2023-02-27T15:05:35.628Z,6.34
2023-02-27T15:15:40.118Z,6.35
2023-02-27T15:25:43.691Z,6.45
2023-02-27T15:35:49.644Z,6.37
2023-02-27T15:45:53.926Z,6.29
2023-02-27T15:56:00.632Z,6.08
2023-02-27T16:06:11.313Z,5.62
2023-02-27T16:16:29.269Z,5.47
2023-02-27T16:26:36.825Z,5.64
2023-02-27T16:36:42.351Z,5.50
2023-02-27T16:46:55.391Z,5.29
2023-02-27T16:57:09.066Z,4.96
2023-02-27T17:07:17.477Z,4.71
2023-02-27T17:17:22.865Z,4.33
2023-02-27T17:27:25.836Z,4.06
2023-02-27T17:37:30.146Z,3.82
2023-02-27T17:47:33.174Z,3.54
2023-02-27T17:57:38.334Z,3.26
2023-02-27T18:07:41.516Z,3.13
2023-02-27T18:17:46.185Z,2.94
2023-02-27T18:27:49.203Z,2.78
2023-02-27T18:37:53.690Z,2.63
2023-02-27T18:47:57.259Z,2.47
2023-02-27T18:58:01.868Z,2.26
2023-02-27T19:08:05.083Z,2.10
2023-02-27T19:18:09.458Z,1.94
2023-02-27T19:28:12.870Z,1.85
2023-02-27T19:38:17.253Z,1.70
2023-02-27T19:48:20.372Z,1.61
2023-02-27T19:58:24.926Z,1.54
2023-02-27T20:08:27.937Z,1.43
2023-02-27T20:18:33.365Z,1.30
2023-02-27T20:28:37.749Z,1.22
2023-02-27T20:38:42.780Z,1.16
2023-02-27T20:48:47.020Z,1.08
2023-02-27T20:58:51.799Z,0.90
2023-02-27T21:08:55.394Z,0.78
2023-02-27T21:19:00.089Z,0.42
2023-02-27T21:29:04.933Z,0.14
2023-02-27T21:39:11.487Z,-0.06
2023-02-27T21:49:17.888Z,-0.16
2023-02-27T21:59:22.266Z,-0.23
2023-02-27T22:09:25.516Z,-0.27
2023-02-27T22:19:30.070Z,-0.16
2023-02-27T22:29:33.366Z,-0.18
2023-02-27T22:39:37.768Z,-0.13
2023-02-27T22:49:41.086Z,-0.06
2023-02-27T22:59:45.804Z,0.05
2023-02-27T23:09:48.516Z,0.05
2023-02-27T23:19:52.848Z,0.03
2023-02-27T23:29:55.838Z,0.10
2023-02-27T23:40:02.676Z,0.17
2023-02-27T23:50:09.330Z,0.12
